Time;durP1;ratioP1;P1;durP2;ratioP2;P2;SDS_P1;SDS_P2;PMS_P1;PMS_P2;Temp;Humidity;BMP_temperature;BMP_pressure;BME280_temperature;BME280_humidity;BME280_pressure;Samples;Min_cycle;Max_cycle;Signal;HPM_P1;HPM_P2
2022/02/26 00:00:45;;;;;;;2.25;0.70;;;;;;;0.52;100.00;102201.59;4763484;30;20040;-80
2022/02/26 00:03:11;;;;;;;2.45;0.80;;;;;;;0.54;100.00;102204.16;4771001;30;20039;-81
2022/02/26 00:05:37;;;;;;;2.22;0.68;;;;;;;0.44;100.00;102196.78;4780988;30;20056;-80
2022/02/26 00:08:03;;;;;;;1.75;0.70;;;;;;;0.53;100.00;102218.31;4779868;30;20036;-81
2022/02/26 00:10:28;;;;;;;3.40;0.60;;;;;;;0.52;100.00;102219.28;4779867;30;20036;-81
2022/02/26 00:12:54;;;;;;;2.78;0.68;;;;;;;0.36;100.00;102206.16;4786891;30;20114;-80
2022/02/26 00:15:20;;;;;;;3.58;0.90;;;;;;;0.28;100.00;102200.53;4798373;30;20169;-81
2022/02/26 00:17:46;;;;;;;3.78;0.60;;;;;;;0.45;100.00;102222.31;4791612;29;20047;-81
2022/02/26 00:20:12;;;;;;;2.38;0.80;;;;;;;0.41;100.00;102222.63;4781782;30;20036;-80
2022/02/26 00:22:37;;;;;;;2.13;0.57;;;;;;;0.51;100.00;102242.28;4778748;30;20117;-81
2022/02/26 00:25:04;;;;;;;1.45;0.50;;;;;;;0.49;100.00;102251.25;4780207;30;20052;-80
2022/02/26 00:27:29;;;;;;;3.10;0.85;;;;;;;0.40;100.00;102253.56;4779482;30;20039;-81
2022/02/26 00:29:55;;;;;;;3.38;0.60;;;;;;;0.31;100.00;102259.41;4781096;30;20054;-80
2022/02/26 00:32:21;;;;;;;7.15;0.90;;;;;;;0.33;100.00;102254.00;4780533;30;20043;-81
2022/02/26 00:34:47;;;;;;;4.55;1.30;;;;;;;0.34;100.00;102253.09;4770527;30;20026;-81
2022/02/26 00:37:12;;;;;;;3.20;0.77;;;;;;;0.35;100.00;102255.63;4789262;30;20095;-81
2022/02/26 00:39:38;;;;;;;3.00;0.57;;;;;;;0.23;100.00;102235.22;4778301;30;20059;-80
2022/02/26 00:42:04;;;;;;;3.08;0.70;;;;;;;0.46;100.00;102269.06;4777924;30;20067;-81
2022/02/26 00:44:29;;;;;;;3.75;0.70;;;;;;;0.39;100.00;102258.94;4762386;30;20047;-80
2022/02/26 00:46:55;;;;;;;1.73;0.60;;;;;;;0.49;100.00;102285.69;4778892;30;20032;-81
2022/02/26 00:52:04;;;;;;;3.63;0.60;;;;;;;0.47;100.00;102284.00;4780257;30;20482;-81
2022/02/26 00:54:30;;;;;;;3.00;0.70;;;;;;;0.40;100.00;102285.31;4759435;30;20040;-80
2022/02/26 00:56:55;;;;;;;2.50;0.60;;;;;;;0.42;100.00;102290.50;4789354;30;20111;-80
2022/02/26 00:59:20;;;;;;;1.27;0.40;;;;;;;0.40;100.00;102295.91;4778327;30;20039;-81
2022/02/26 01:01:46;;;;;;;3.10;0.73;;;;;;;0.31;100.00;102298.28;4776841;30;20065;-80
2022/02/26 01:04:12;;;;;;;2.35;0.70;;;;;;;0.22;100.00;102297.06;4776247;30;20047;-81
2022/02/26 01:06:37;;;;;;;3.10;0.43;;;;;;;0.22;100.00;102307.66;4777048;30;20056;-80
2022/02/26 01:09:04;;;;;;;5.15;0.60;;;;;;;0.17;100.00;102309.75;4777197;30;20047;-81
2022/02/26 01:11:30;;;;;;;2.22;0.65;;;;;;;-0.03;100.00;102274.75;4776963;30;20043;-81
2022/02/26 01:13:57;;;;;;;5.68;0.70;;;;;;;0.16;100.00;102319.44;4774488;30;20542;-80
2022/02/26 01:16:23;;;;;;;2.60;0.70;;;;;;;0.14;100.00;102331.09;4776685;30;20071;-80
2022/02/26 01:18:48;;;;;;;3.17;0.65;;;;;;;-0.24;100.00;102281.34;4774675;30;20114;-80
2022/02/26 01:21:14;;;;;;;2.75;0.73;;;;;;;-0.07;100.00;102314.72;4760561;30;20066;-80
2022/02/26 01:23:39;;;;;;;2.13;0.68;;;;;;;-0.10;100.00;102322.84;4773834;30;20516;-81
2022/02/26 01:26:04;;;;;;;3.05;0.65;;;;;;;0.04;100.00;102348.50;4776164;30;20044;-80
2022/02/26 01:28:30;;;;;;;1.23;0.75;;;;;;;-0.04;100.00;102347.13;4772364;30;20039;-80
2022/02/26 01:30:55;;;;;;;3.10;0.90;;;;;;;-0.02;100.00;102355.00;4758214;30;20109;-80
2022/02/26 01:33:21;;;;;;;1.80;0.52;;;;;;;-0.19;100.00;102341.94;4773731;30;20048;-80
2022/02/26 01:35:46;;;;;;;2.55;0.63;;;;;;;-0.26;100.00;102344.09;4773435;30;20055;-80
2022/02/26 01:38:11;;;;;;;2.70;0.68;;;;;;;-0.16;100.00;102376.13;4791385;30;20115;-80
2022/02/26 01:40:37;;;;;;;1.50;0.60;;;;;;;-0.17;100.00;102383.19;4774186;30;20063;-80
2022/02/26 01:43:03;;;;;;;2.13;0.50;;;;;;;-0.24;100.00;102377.41;4783010;29;20044;-80
2022/02/26 01:45:28;;;;;;;1.83;0.60;;;;;;;-0.33;100.00;102369.16;4768210;30;20032;-80
2022/02/26 01:47:55;;;;;;;3.35;0.73;;;;;;;-0.27;100.00;102393.47;4761139;30;20070;-79
2022/02/26 01:50:21;;;;;;;2.92;0.70;;;;;;;-0.31;100.00;102386.66;4756177;30;20036;-80
2022/02/26 01:52:47;;;;;;;2.08;0.65;;;;;;;-0.43;100.00;102382.09;4778160;30;20035;-80
2022/02/26 01:55:13;;;;;;;2.30;0.57;;;;;;;-0.36;100.00;102416.97;4776025;30;20035;-80
2022/02/26 01:57:39;;;;;;;1.60;0.50;;;;;;;-0.41;100.00;102414.59;4781685;29;20039;-80
2022/02/26 02:00:07;;;;;;;1.38;0.50;;;;;;;-0.59;100.00;102408.56;4773748;30;20040;-80
2022/02/26 02:02:33;;;;;;;3.72;0.57;;;;;;;-0.50;100.00;102423.03;4774112;30;20170;-79
2022/02/26 02:04:58;;;;;;;4.45;0.70;;;;;;;-0.62;100.00;102419.31;4773719;30;20059;-80
2022/02/26 02:07:24;;;;;;;3.08;0.70;;;;;;;-0.73;100.00;102419.06;4788750;30;20094;-80
2022/02/26 02:09:50;;;;;;;4.32;0.95;;;;;;;-0.62;100.00;102440.47;4774457;30;20060;-80
2022/02/26 02:12:16;;;;;;;1.73;0.65;;;;;;;-0.61;100.00;102442.16;4773057;30;20040;-80
2022/02/26 02:14:44;;;;;;;3.53;0.88;;;;;;;-0.60;100.00;102437.72;4771465;30;20040;-79
2022/02/26 02:17:10;;;;;;;2.13;0.70;;;;;;;-0.63;100.00;102449.34;4772348;30;20027;-80
2022/02/26 02:19:35;;;;;;;2.63;0.77;;;;;;;-0.68;100.00;102448.75;4775077;30;20444;-79
2022/02/26 02:22:05;;;;;;;2.38;0.68;;;;;;;-0.87;100.00;102435.69;4785236;30;20039;-80
2022/02/26 02:24:30;;;;;;;1.67;0.63;;;;;;;-0.79;100.00;102461.72;4787594;30;20185;-79
2022/02/26 02:26:59;;;;;;;3.72;0.77;;;;;;;-0.96;100.00;102455.56;4776263;30;20126;-80
2022/02/26 02:29:24;;;;;;;2.22;0.65;;;;;;;-0.92;100.00;102472.09;4771875;30;20088;-80
2022/02/26 02:31:50;;;;;;;2.70;0.50;;;;;;;-1.15;100.00;102443.44;4770917;30;20306;-80
2022/02/26 02:34:15;;;;;;;6.07;0.70;;;;;;;-1.11;100.00;102458.19;4771095;30;20024;-79
2022/02/26 02:36:46;;;;;;;3.63;0.60;;;;;;;-1.47;100.00;102411.66;4766868;30;20043;-80
2022/02/26 02:39:13;;;;;;;2.75;0.65;;;;;;;-1.13;100.00;102471.44;4790622;30;20043;-80
2022/02/26 02:41:38;;;;;;;3.92;0.68;;;;;;;-1.11;100.00;102482.78;4776967;30;20032;-80
2022/02/26 02:44:06;;;;;;;3.20;0.60;;;;;;;-1.27;100.00;102463.41;4755782;30;20449;-80
2022/02/26 02:46:33;;;;;;;3.15;0.60;;;;;;;-1.20;100.00;102491.19;4770255;30;20123;-80
2022/02/26 02:48:59;;;;;;;3.03;0.70;;;;;;;-1.23;100.00;102491.38;4754102;30;20035;-80
2022/02/26 02:51:25;;;;;;;2.58;0.68;;;;;;;-1.24;100.00;102490.50;4769799;30;20066;-80
2022/02/26 02:53:50;;;;;;;3.38;0.80;;;;;;;-1.25;100.00;102495.91;4782735;30;20039;-80
2022/02/26 02:56:16;;;;;;;3.08;0.70;;;;;;;-1.25;100.00;102498.53;4787941;30;20066;-80
2022/02/26 02:58:41;;;;;;;5.15;0.85;;;;;;;-1.26;100.00;102499.44;4770700;30;20023;-79
2022/02/26 03:01:07;;;;;;;2.45;0.60;;;;;;;-1.30;100.00;102500.56;4768895;30;20040;-80
2022/02/26 03:03:32;;;;;;;3.47;0.85;;;;;;;-1.44;100.00;102494.19;4770681;30;20027;-80
2022/02/26 03:05:58;;;;;;;2.90;0.93;;;;;;;-1.51;100.00;102492.81;4770207;30;20047;-79
2022/02/26 03:08:24;;;;;;;6.00;0.80;;;;;;;-1.41;100.00;102519.59;4769630;30;20043;-80
2022/02/26 03:10:56;;;;;;;3.30;0.80;;;;;;;-1.45;100.00;102529.47;4770263;30;20035;-79
2022/02/26 03:13:23;;;;;;;2.03;0.63;;;;;;;-1.63;100.00;102511.91;4770948;30;20039;-79
2022/02/26 03:15:51;;;;;;;1.98;0.60;;;;;;;-1.53;100.00;102544.81;4773110;30;20042;-79
2022/02/26 03:18:18;;;;;;;2.30;0.70;;;;;;;-1.54;100.00;102544.91;4776187;30;20039;-79
2022/02/26 03:20:43;;;;;;;4.22;0.80;;;;;;;-1.60;100.00;102547.88;4774822;30;20051;-80
2022/02/26 03:23:09;;;;;;;3.53;0.98;;;;;;;-1.55;100.00;102557.28;4772059;30;20027;-79
2022/02/26 03:25:35;;;;;;;4.78;0.80;;;;;;;-1.72;100.00;102534.38;4757949;30;20081;-79
2022/02/26 03:28:00;;;;;;;2.45;0.82;;;;;;;-1.47;100.00;102568.28;4757570;30;20035;-79
2022/02/26 03:30:25;;;;;;;3.55;0.77;;;;;;;-1.47;100.00;102565.63;4773246;30;20359;-79
2022/02/26 03:32:51;;;;;;;4.43;1.20;;;;;;;-1.47;100.00;102573.56;4771169;30;20040;-79
2022/02/26 03:35:16;;;;;;;2.35;0.70;;;;;;;-1.48;100.00;102571.88;4772973;30;20050;-79
2022/02/26 03:37:42;;;;;;;3.60;0.90;;;;;;;-1.50;100.00;102591.34;4756793;30;20058;-80
2022/02/26 03:40:09;;;;;;;4.70;0.90;;;;;;;-1.48;100.00;102600.91;4771932;30;20413;-79
2022/02/26 03:42:35;;;;;;;3.85;0.82;;;;;;;-1.51;100.00;102593.13;4771110;30;20451;-79
2022/02/26 03:45:01;;;;;;;3.78;0.85;;;;;;;-1.52;100.00;102602.00;4772523;30;20046;-79
2022/02/26 03:47:26;;;;;;;4.03;0.82;;;;;;;-1.62;100.00;102584.91;4770805;30;20153;-79
2022/02/26 03:49:52;;;;;;;3.53;0.70;;;;;;;-1.60;100.00;102592.75;4772884;30;20043;-79
2022/02/26 03:52:19;;;;;;;3.83;0.90;;;;;;;-1.74;100.00;102583.72;4771604;30;20031;-79
2022/02/26 03:54:44;;;;;;;3.90;0.75;;;;;;;-1.54;100.00;102605.63;4768856;30;20066;-79
2022/02/26 03:57:10;;;;;;;7.78;0.98;;;;;;;-1.74;100.00;102575.81;4772902;30;20455;-79
2022/02/26 03:59:36;;;;;;;2.90;0.70;;;;;;;-1.54;100.00;102613.56;4741749;30;20117;-79
2022/02/26 04:02:01;;;;;;;5.03;1.00;;;;;;;-1.55;100.00;102615.34;4779201;30;20043;-79
2022/02/26 04:04:27;;;;;;;3.83;0.88;;;;;;;-1.60;100.00;102619.13;4757846;30;20127;-79
2022/02/26 04:06:54;;;;;;;4.63;0.93;;;;;;;-1.71;100.00;102617.03;4771572;30;20055;-79
2022/02/26 04:09:20;;;;;;;4.78;0.70;;;;;;;-1.66;100.00;102630.84;4772111;30;20051;-79
2022/02/26 04:11:45;;;;;;;2.53;0.90;;;;;;;-1.65;100.00;102635.22;4769923;30;20031;-79
2022/02/26 04:14:10;;;;;;;4.13;0.80;;;;;;;-1.67;100.00;102639.69;4773431;30;20122;-79
2022/02/26 04:16:36;;;;;;;6.50;0.90;;;;;;;-1.75;100.00;102653.28;4771254;30;20050;-79
2022/02/26 04:19:02;;;;;;;2.85;0.93;;;;;;;-1.83;100.00;102650.13;4756313;30;20441;-79
2022/02/26 04:21:28;;;;;;;4.72;1.10;;;;;;;-1.78;100.00;102656.06;4772687;30;20035;-79
2022/02/26 04:23:56;;;;;;;2.70;0.90;;;;;;;-1.79;100.00;102661.38;4772389;30;20382;-79
2022/02/26 04:26:22;;;;;;;4.03;0.70;;;;;;;-1.79;100.00;102671.94;4772237;30;20078;-79
2022/02/26 04:28:54;;;;;;;4.70;0.75;;;;;;;-1.90;100.00;102654.84;4770849;30;20428;-79
2022/02/26 04:31:20;;;;;;;4.38;1.00;;;;;;;-1.82;100.00;102675.59;4772890;30;20040;-78
2022/02/26 04:33:46;;;;;;;5.38;0.90;;;;;;;-1.91;100.00;102679.53;4770718;30;20028;-79
2022/02/26 04:36:11;;;;;;;3.58;0.60;;;;;;;-1.93;100.00;102680.53;4771963;30;20043;-79
2022/02/26 04:38:37;;;;;;;2.47;0.70;;;;;;;-1.94;100.00;102684.09;4771534;30;20039;-79
2022/02/26 04:41:05;;;;;;;3.28;0.60;;;;;;;-2.06;100.00;102676.75;4769803;30;20036;-79
2022/02/26 04:43:32;;;;;;;6.45;0.90;;;;;;;-1.96;100.00;102704.41;4755906;30;20379;-79
2022/02/26 04:45:58;;;;;;;4.35;0.68;;;;;;;-1.99;100.00;102702.75;4771002;30;20036;-79
2022/02/26 04:48:23;;;;;;;2.63;0.60;;;;;;;-2.06;100.00;102696.06;4770841;30;20495;-79
2022/02/26 04:50:49;;;;;;;4.25;0.82;;;;;;;-1.97;100.00;102710.63;4756769;30;20051;-79
2022/02/26 04:53:14;;;;;;;3.42;0.80;;;;;;;-2.04;100.00;102715.31;4773701;30;20039;-78
2022/02/26 04:55:39;;;;;;;2.70;0.70;;;;;;;-2.03;100.00;102724.94;4759373;30;20126;-78
2022/02/26 04:58:05;;;;;;;2.85;0.70;;;;;;;-2.23;100.00;102695.97;4756124;30;20363;-78
2022/02/26 05:00:31;;;;;;;3.20;0.55;;;;;;;-2.28;100.00;102693.56;4772244;30;20036;-79
2022/02/26 05:02:56;;;;;;;2.60;0.57;;;;;;;-2.33;100.00;102692.06;4772742;30;20123;-79
2022/02/26 05:05:21;;;;;;;3.33;0.70;;;;;;;-2.11;100.00;102745.53;4770056;30;20051;-78
2022/02/26 05:07:47;;;;;;;2.67;0.68;;;;;;;-2.23;100.00;102743.44;4771228;30;20431;-79
2022/02/26 05:10:13;;;;;;;6.22;0.75;;;;;;;-2.21;100.00;102752.16;4761127;30;20383;-79
2022/02/26 05:12:38;;;;;;;6.05;0.93;;;;;;;-2.24;100.00;102762.84;4772725;30;20119;-79
2022/02/26 05:15:05;;;;;;;3.72;0.95;;;;;;;-2.34;100.00;102759.75;4770840;30;20040;-79
2022/02/26 05:17:30;;;;;;;3.60;0.60;;;;;;;-2.38;100.00;102774.84;4769024;30;20096;-78
2022/02/26 05:19:55;;;;;;;3.08;0.90;;;;;;;-2.45;100.00;102773.41;4772216;30;20047;-78
2022/02/26 05:22:21;;;;;;;4.88;0.55;;;;;;;-2.46;100.00;102782.22;4771007;30;20182;-79
2022/02/26 05:24:46;;;;;;;1.77;0.60;;;;;;;-2.45;100.00;102794.50;4771440;30;20036;-78
2022/02/26 05:27:12;;;;;;;3.35;0.60;;;;;;;-2.46;100.00;102803.31;4770402;30;20424;-79
2022/02/26 05:29:37;;;;;;;1.92;0.40;;;;;;;-2.52;100.00;102816.75;4770866;30;20036;-79
2022/02/26 05:32:03;;;;;;;4.90;0.70;;;;;;;-2.55;100.00;102814.25;4770902;30;20034;-79
2022/02/26 05:34:28;;;;;;;3.28;0.47;;;;;;;-2.61;100.00;102812.72;4771956;30;20082;-78
2022/02/26 05:36:54;;;;;;;2.65;0.65;;;;;;;-2.60;100.00;102810.94;4754811;30;20051;-78
2022/02/26 05:39:19;;;;;;;5.50;1.67;;;;;;;-2.73;100.00;102800.06;4770448;30;20107;-79
2022/02/26 05:41:45;;;;;;;3.15;1.00;;;;;;;-2.55;100.00;102824.81;4769992;30;20036;-79
2022/02/26 05:44:10;;;;;;;4.00;0.90;;;;;;;-2.72;100.00;102801.75;4770694;30;20054;-78
2022/02/26 05:46:36;;;;;;;4.70;0.68;;;;;;;-2.62;100.00;102836.50;4770489;30;20036;-79
2022/02/26 05:49:02;;;;;;;2.95;0.55;;;;;;;-2.66;100.00;102835.78;4769700;30;20046;-78
2022/02/26 05:51:27;;;;;;;3.53;0.60;;;;;;;-2.70;100.00;102841.25;4771347;30;20472;-78
2022/02/26 05:53:52;;;;;;;4.47;0.75;;;;;;;-2.74;100.00;102840.50;4768965;30;20105;-79
2022/02/26 05:56:18;;;;;;;7.03;0.63;;;;;;;-2.66;100.00;102864.75;4770631;30;20047;-79
2022/02/26 05:58:43;;;;;;;3.60;0.70;;;;;;;-2.70;100.00;102865.81;4770336;30;20031;-78
2022/02/26 06:01:09;;;;;;;3.53;0.80;;;;;;;-2.73;100.00;102867.72;4755079;30;20109;-78
2022/02/26 06:03:34;;;;;;;3.90;0.80;;;;;;;-2.78;100.00;102862.66;4770145;30;20096;-78
2022/02/26 06:06:00;;;;;;;5.63;0.95;;;;;;;-2.79;100.00;102855.63;4754980;30;20066;-78
2022/02/26 06:08:25;;;;;;;4.25;1.10;;;;;;;-2.76;100.00;102870.47;4762555;30;20370;-78
2022/02/26 06:10:51;;;;;;;4.07;1.00;;;;;;;-2.76;100.00;102881.88;4774350;30;20044;-79
2022/02/26 06:13:16;;;;;;;3.97;0.82;;;;;;;-2.75;100.00;102885.34;4767641;30;20131;-79
2022/02/26 06:15:42;;;;;;;4.55;0.75;;;;;;;-2.72;100.00;102885.22;4771685;30;20067;-78
2022/02/26 06:18:07;;;;;;;3.38;0.75;;;;;;;-2.83;100.00;102870.72;4755208;30;20094;-79
2022/02/26 06:20:33;;;;;;;3.95;1.00;;;;;;;-2.75;100.00;102888.00;4768883;30;20043;-79
2022/02/26 06:22:58;;;;;;;5.00;1.13;;;;;;;-2.83;100.00;102872.50;4776421;30;20063;-79
2022/02/26 06:25:24;;;;;;;6.28;0.95;;;;;;;-2.81;100.00;102870.66;4758253;30;20046;-79
2022/02/26 06:27:49;;;;;;;5.20;0.85;;;;;;;-2.78;100.00;102891.63;4770772;30;20039;-78
2022/02/26 06:30:15;;;;;;;2.50;0.63;;;;;;;-2.86;100.00;102891.91;4768744;30;20035;-78
2022/02/26 06:32:40;;;;;;;2.00;0.60;;;;;;;-3.23;100.00;102836.34;4766999;30;20088;-79
2022/02/26 06:35:07;;;;;;;3.67;0.93;;;;;;;-2.96;100.00;102887.94;4766319;30;20047;-79
2022/02/26 06:37:33;;;;;;;2.88;1.00;;;;;;;-2.97;100.00;102901.16;4772185;30;20027;-79
2022/02/26 06:39:59;;;;;;;3.80;1.05;;;;;;;-3.17;100.00;102873.84;4756050;30;20040;-79
2022/02/26 06:42:25;;;;;;;3.55;1.02;;;;;;;-3.02;100.00;102895.22;4767178;30;20042;-80
2022/02/26 06:44:51;;;;;;;3.35;0.88;;;;;;;-3.06;100.00;102907.66;4767684;30;20035;-79
2022/02/26 06:47:16;;;;;;;2.47;0.70;;;;;;;-3.13;100.00;102901.75;4770020;30;20027;-79
2022/02/26 06:49:42;;;;;;;5.05;0.80;;;;;;;-3.18;100.00;102887.94;4767451;30;20110;-79
2022/02/26 06:52:08;;;;;;;4.35;1.33;;;;;;;-3.10;100.00;102909.53;4751531;30;20051;-79
2022/02/26 06:54:34;;;;;;;3.60;0.85;;;;;;;-2.94;100.00;102924.75;4772129;30;20051;-79
2022/02/26 06:56:59;;;;;;;4.22;1.17;;;;;;;-2.95;100.00;102905.44;4772036;30;20044;-78
2022/02/26 06:59:26;;;;;;;2.72;0.80;;;;;;;-2.65;100.00;102931.50;4769595;30;20047;-78
2022/02/26 07:01:52;;;;;;;2.60;0.80;;;;;;;-2.53;100.00;102932.78;4766539;30;20994;-79
2022/02/26 07:04:18;;;;;;;4.10;0.80;;;;;;;-2.44;100.00;102943.81;4782941;29;20047;-78
2022/02/26 07:06:44;;;;;;;2.35;0.88;;;;;;;-2.38;100.00;102940.94;4766210;30;20104;-79
2022/02/26 07:09:14;;;;;;;2.13;0.77;;;;;;;-2.33;100.00;102946.03;4767899;30;20043;-79
2022/02/26 07:11:48;;;;;;;3.15;1.17;;;;;;;-2.31;100.00;102935.44;4783753;29;20047;-81
2022/02/26 07:14:14;;;;;;;7.07;2.70;;;;;;;-2.17;100.00;102954.16;4751653;30;20092;-81
2022/02/26 07:16:40;;;;;;;14.80;8.98;;;;;;;-2.16;100.00;102954.09;4766986;30;20059;-79
2022/02/26 07:19:07;;;;;;;12.05;8.45;;;;;;;-2.16;100.00;102962.00;4770192;30;20044;-79
2022/02/26 07:21:33;;;;;;;9.55;6.68;;;;;;;-2.12;100.00;102970.63;4739516;30;20084;-79
2022/02/26 07:23:59;;;;;;;7.95;5.03;;;;;;;-2.10;100.00;102967.94;4770564;30;20825;-80
2022/02/26 07:26:29;;;;;;;7.95;4.55;;;;;;;-2.28;100.00;102938.78;4769368;30;20120;-79
2022/02/26 07:28:54;;;;;;;11.57;6.05;;;;;;;-2.13;100.00;102971.56;4764853;30;20060;-79
2022/02/26 07:31:20;;;;;;;9.63;5.70;;;;;;;-2.18;100.00;102960.38;4771415;30;20171;-81
2022/02/26 07:33:48;;;;;;;6.20;3.85;;;;;;;-2.02;100.00;102982.56;4768918;30;20040;-79
2022/02/26 07:36:15;;;;;;;6.20;2.42;;;;;;;-1.90;100.00;102991.72;4763758;30;20547;-79
2022/02/26 07:38:41;;;;;;;8.55;3.53;;;;;;;-1.93;100.00;102982.16;4761524;30;20036;-79
2022/02/26 07:41:07;;;;;;;4.80;2.00;;;;;;;-1.95;100.00;102972.59;4742756;30;20429;-80
2022/02/26 07:43:34;;;;;;;3.67;1.60;;;;;;;-1.84;100.00;102980.06;4769038;30;20036;-80
2022/02/26 07:45:59;;;;;;;7.45;1.88;;;;;;;-1.66;100.00;102987.16;4767697;30;20081;-80
2022/02/26 07:48:25;;;;;;;16.25;2.55;;;;;;;-1.45;100.00;103019.72;4768938;30;20066;-80
2022/02/26 07:50:50;;;;;;;6.53;1.58;;;;;;;-1.35;100.00;103020.19;4778553;30;20071;-80
2022/02/26 07:53:16;;;;;;;5.55;1.33;;;;;;;-1.35;100.00;103012.25;4768117;30;20040;-80
2022/02/26 07:55:41;;;;;;;4.93;1.60;;;;;;;-1.29;100.00;103009.31;4778710;30;20040;-81
2022/02/26 07:58:06;;;;;;;6.82;1.50;;;;;;;-1.04;100.00;103035.50;4757706;30;20065;-80
2022/02/26 08:00:32;;;;;;;3.53;1.40;;;;;;;-1.02;100.00;103033.69;4768602;30;20147;-80
2022/02/26 08:02:58;;;;;;;3.15;1.38;;;;;;;-0.92;100.00;103039.41;4772616;30;20104;-79
2022/02/26 08:05:24;;;;;;;4.85;2.20;;;;;;;-0.85;100.00;103046.97;4757152;30;20475;-79
2022/02/26 08:07:51;;;;;;;10.02;2.60;;;;;;;-0.67;100.00;103045.25;4773528;30;20046;-79
2022/02/26 08:10:20;;;;;;;9.05;3.00;;;;;;;-0.53;100.00;103052.56;4764041;30;20104;-79
2022/02/26 08:12:45;;;;;;;6.30;1.70;;;;;;;-0.38;100.00;103058.91;4773248;30;20141;-80
2022/02/26 08:15:11;;;;;;;6.68;1.35;;;;;;;-0.25;100.00;103060.91;4778656;30;20616;-81
2022/02/26 08:17:36;;;;;;;4.18;1.40;;;;;;;-0.10;100.00;103061.97;4780106;30;20096;-80
2022/02/26 08:20:03;;;;;;;7.85;1.63;;;;;;;-0.04;100.00;103050.22;4781314;30;20043;-82
2022/02/26 08:22:28;;;;;;;7.05;1.35;;;;;;;0.13;100.00;103078.50;4805056;29;20035;-81
2022/02/26 08:24:54;;;;;;;3.25;1.08;;;;;;;0.27;100.00;103068.09;4799818;30;20109;-79
2022/02/26 08:27:20;;;;;;;5.05;1.20;;;;;;;0.36;100.00;103059.69;4779830;29;20032;-80
2022/02/26 08:29:46;;;;;;;5.32;1.20;;;;;;;0.46;100.00;103057.41;4774518;30;20036;-80
2022/02/26 08:32:12;;;;;;;7.38;1.35;;;;;;;0.78;100.00;103086.72;4776813;30;20105;-81
2022/02/26 08:34:37;;;;;;;7.38;1.50;;;;;;;0.78;100.00;103071.69;4772854;30;20062;-78
2022/02/26 08:37:03;;;;;;;5.70;1.50;;;;;;;0.73;100.00;103052.53;4778207;30;20452;-80
2022/02/26 08:39:30;;;;;;;5.28;1.42;;;;;;;1.03;100.00;103094.25;4795901;30;20070;-80
2022/02/26 08:41:56;;;;;;;6.78;1.30;;;;;;;1.09;100.00;103094.81;4790418;29;20043;-80
2022/02/26 08:44:21;;;;;;;3.78;1.13;;;;;;;1.09;100.00;103088.59;4782212;30;20040;-79
2022/02/26 08:46:47;;;;;;;8.82;1.10;;;;;;;1.16;100.00;103097.97;4771913;30;20106;-79
2022/02/26 08:49:12;;;;;;;8.95;1.50;;;;;;;1.34;100.00;103112.03;4778024;30;20031;-78
2022/02/26 08:51:38;;;;;;;5.00;1.63;;;;;;;1.46;100.00;103123.78;4779257;30;20042;-80
2022/02/26 08:54:04;;;;;;;4.57;1.45;;;;;;;1.52;100.00;103116.34;4749188;30;20038;-79
2022/02/26 08:56:29;;;;;;;5.70;0.95;;;;;;;1.57;100.00;103124.06;4781374;30;20448;-79
2022/02/26 08:58:55;;;;;;;5.90;0.80;;;;;;;1.60;100.00;103123.91;4739669;30;20039;-79
2022/02/26 09:01:21;;;;;;;5.68;1.20;;;;;;;1.65;100.00;103117.38;4769901;30;20104;-79
2022/02/26 09:03:47;;;;;;;5.10;0.88;;;;;;;1.80;100.00;103125.47;4771029;30;20104;-78
2022/02/26 09:06:13;;;;;;;5.70;1.02;;;;;;;1.86;100.00;103118.00;4771342;30;20048;-78
2022/02/26 09:08:39;;;;;;;4.57;0.90;;;;;;;1.99;100.00;103131.47;4768374;30;20426;-79
2022/02/26 09:11:08;;;;;;;3.92;1.17;;;;;;;2.07;100.00;103145.16;4771518;30;20040;-79
2022/02/26 09:13:36;;;;;;;5.43;1.00;;;;;;;2.07;100.00;103134.53;4768007;30;20490;-79
2022/02/26 09:16:01;;;;;;;4.57;0.80;;;;;;;2.16;100.00;103138.47;4771818;30;20650;-79
2022/02/26 09:18:27;;;;;;;3.50;0.90;;;;;;;2.16;100.00;103133.16;4770569;30;20119;-79
2022/02/26 09:20:52;;;;;;;3.05;0.82;;;;;;;2.25;100.00;103139.75;4756954;30;20054;-80
2022/02/26 09:23:18;;;;;;;3.80;0.80;;;;;;;2.21;100.00;103127.59;4770749;30;20421;-80
2022/02/26 09:25:43;;;;;;;7.55;1.05;;;;;;;2.27;100.00;103145.84;4756058;30;20067;-79
2022/02/26 09:28:08;;;;;;;3.92;0.88;;;;;;;2.21;100.00;103130.25;4770549;30;20047;-80
2022/02/26 09:30:34;;;;;;;4.03;0.80;;;;;;;2.33;100.00;103140.19;4769932;30;20050;-79
2022/02/26 09:32:59;;;;;;;4.32;0.93;;;;;;;2.33;100.00;103137.50;4784367;30;20051;-80
2022/02/26 09:35:25;;;;;;;4.82;1.00;;;;;;;2.13;100.00;103106.78;4779794;30;20475;-80
2022/02/26 09:37:52;;;;;;;6.55;1.13;;;;;;;2.47;100.00;103163.28;4745683;30;20046;-81
2022/02/26 09:40:18;;;;;;;3.75;0.82;;;;;;;1.91;100.00;103063.78;4777020;30;20190;-80
2022/02/26 09:42:45;;;;;;;3.70;0.70;;;;;;;2.44;100.00;103134.22;4776264;30;20035;-81
2022/02/26 09:45:10;;;;;;;2.72;0.75;;;;;;;2.58;100.00;103155.53;4775560;30;20036;-80
2022/02/26 09:47:36;;;;;;;5.53;1.00;;;;;;;2.56;100.00;103139.69;4780300;30;20042;-80
2022/02/26 09:50:03;;;;;;;3.83;0.90;;;;;;;2.82;100.00;103164.75;4780300;30;20038;-81
2022/02/26 09:52:30;;;;;;;5.30;1.00;;;;;;;2.91;100.00;103167.81;4774449;30;20028;-81
2022/02/26 09:54:55;;;;;;;6.75;1.65;;;;;;;2.78;100.00;103144.63;4777433;29;20115;-80
2022/02/26 09:57:21;;;;;;;5.13;1.05;;;;;;;2.94;100.00;103171.13;4774768;30;20078;-80
2022/02/26 09:59:47;;;;;;;4.53;1.25;;;;;;;2.88;100.00;103160.88;4777269;30;20031;-80
2022/02/26 10:02:13;;;;;;;4.95;1.00;;;;;;;2.81;100.00;103151.53;4776507;30;20097;-79
2022/02/26 10:04:51;;;;;;;3.42;1.10;;;;;;;3.08;100.00;103180.97;4779729;30;20470;-80
2022/02/26 10:09:45;;;;;;;2.80;0.65;;;;;;;2.31;100.00;103063.19;4796406;29;20055;-82
2022/02/26 10:12:51;;;;;;;2.95;0.88;;;;;;;1.13;100.00;102870.97;4801223;29;20086;-83
2022/02/26 10:33:23;;;;;;;3.83;1.08;;;;;;;1.76;100.00;102920.41;4778917;29;20047;-82
2022/02/26 10:35:54;;;;;;;5.57;1.00;;;;;;;2.75;100.00;103077.50;4777743;30;20053;-81
2022/02/26 10:38:38;;;;;;;6.45;1.13;;;;;;;3.69;100.00;103222.47;4789159;29;20053;-81
2022/02/26 10:41:10;;;;;;;4.13;0.85;;;;;;;3.72;100.00;103224.09;4780072;29;20493;-81
2022/02/26 10:43:56;;;;;;;4.28;1.23;;;;;;;3.74;100.00;103227.50;4772652;30;20366;-82
2022/02/26 10:46:24;;;;;;;5.72;0.90;;;;;;;3.85;100.00;103235.72;4760802;30;20039;-82
2022/02/26 10:48:53;;;;;;;4.57;0.80;;;;;;;3.88;100.00;103229.34;4787591;29;20024;-83
2022/02/26 10:51:21;;;;;;;4.88;0.80;;;;;;;3.72;100.00;103197.47;4789320;29;20028;-83
2022/02/26 10:53:49;;;;;;;6.65;0.98;;;;;;;3.91;100.00;103226.50;4796245;29;20055;-82
2022/02/26 10:58:46;;;;;;;6.68;1.00;;;;;;;3.97;100.00;103228.75;4787891;29;20068;-83
2022/02/26 11:01:15;;;;;;;7.45;1.67;;;;;;;2.94;100.00;103055.94;4984291;24;20018;-83
2022/02/26 11:03:42;;;;;;;6.72;1.00;;;;;;;3.33;100.00;103110.28;4764391;29;20109;-82
2022/02/26 11:06:12;;;;;;;5.22;0.88;;;;;;;3.90;100.00;103211.44;4766637;30;20036;-80
2022/02/26 11:08:38;;;;;;;13.77;1.40;;;;;;;3.34;100.00;103099.53;4762291;30;20032;-80
2022/02/26 11:11:06;;;;;;;4.82;1.30;;;;;;;4.18;100.00;103237.22;4769133;30;20043;-82
2022/02/26 11:13:33;;;;;;;7.22;0.80;;;;;;;3.78;100.00;103165.13;4774473;30;20036;-82
2022/02/26 11:16:01;;;;;;;3.78;0.80;;;;;;;4.27;100.00;103225.94;4781757;29;20040;-83
2022/02/26 11:18:37;;;;;;;4.18;1.00;;;;;;;4.33;100.00;103219.38;4762691;30;20029;-81
2022/02/26 11:21:05;;;;;;;6.07;0.90;;;;;;;4.28;100.00;103227.66;4759601;30;20038;-82
2022/02/26 11:23:32;;;;;;;4.45;0.85;;;;;;;4.19;100.00;103201.59;4773186;30;20039;-83
2022/02/26 11:25:59;;;;;;;5.70;1.25;;;;;;;4.33;100.00;103236.19;4764968;30;20051;-81
2022/02/26 11:28:26;;;;;;;5.60;1.20;;;;;;;4.21;100.00;103218.34;4768018;30;20050;-82
2022/02/26 11:30:57;;;;;;;4.85;1.42;;;;;;;4.37;100.00;103239.53;4774595;30;20078;-82
2022/02/26 11:33:23;;;;;;;3.80;1.20;;;;;;;4.16;100.00;103213.31;4778126;30;20055;-84
2022/02/26 11:35:59;;;;;;;7.32;1.05;;;;;;;4.38;100.00;103244.78;4771568;30;20489;-83
2022/02/26 11:38:26;;;;;;;3.60;0.90;;;;;;;4.32;100.00;103236.31;4770242;30;20032;-83
2022/02/26 11:41:18;;;;;;;4.85;1.13;;;;;;;4.40;100.00;103242.88;4770779;30;20028;-82